Time;durP1;ratioP1;P1;durP2;ratioP2;P2;SDS_P1;SDS_P2;PMS_P1;PMS_P2;Temp;Humidity;BMP_temperature;BMP_pressure;BME280_temperature;BME280_humidity;BME280_pressure;Samples;Min_cycle;Max_cycle;Signal;HPM_P1;HPM_P2
2022/04/03 00:00:48;;;;;;;;;;;;;;;10.47;65.48;98672.41;3138863;28;19937;-73
2022/04/03 00:02:20;;;;;;;;;;;;;;;10.47;65.30;98673.25;3134185;28;20080;-73
2022/04/03 00:03:51;;;;;;;;;;;;;;;10.46;65.08;98676.75;3138291;28;20077;-73
2022/04/03 00:05:23;;;;;;;;;;;;;;;10.45;65.25;98680.31;3133245;28;19955;-73
2022/04/03 00:06:55;;;;;;;;;;;;;;;10.45;65.18;98674.28;3136340;28;20429;-73
2022/04/03 00:08:28;;;;;;;;;;;;;;;10.44;65.08;98673.44;3133911;28;19925;-73
2022/04/03 00:09:59;;;;;;;;;;;;;;;10.44;64.97;98673.44;3134963;28;19954;-73
2022/04/03 00:11:30;;;;;;;;;;;;;;;10.43;64.84;98671.75;3133858;28;20003;-73
2022/04/03 00:13:02;;;;;;;;;;;;;;;10.42;65.03;98670.09;3133181;28;19933;-73
2022/04/03 00:14:34;;;;;;;;;;;;;;;10.42;64.87;98672.69;3134793;28;20530;-73
2022/04/03 00:16:07;;;;;;;;;;;;;;;10.42;64.69;98675.28;3133395;28;19955;-73
2022/04/03 00:17:39;;;;;;;;;;;;;;;10.42;64.65;98666.66;3134337;28;19932;-73
2022/04/03 00:19:10;;;;;;;;;;;;;;;10.42;64.62;98679.66;3132978;28;19929;-73
2022/04/03 00:20:42;;;;;;;;;;;;;;;10.40;64.67;98674.53;3139320;28;19925;-75
2022/04/03 00:22:14;;;;;;;;;;;;;;;10.40;64.72;98671.94;3133429;28;19935;-73
2022/04/03 00:23:47;;;;;;;;;;;;;;;10.39;64.48;98672.06;3136447;28;19925;-73
2022/04/03 00:25:19;;;;;;;;;;;;;;;10.39;64.64;98665.09;3135379;28;20434;-74
2022/04/03 00:26:51;;;;;;;;;;;;;;;10.40;64.61;98668.50;3134095;28;19978;-74
2022/04/03 00:28:23;;;;;;;;;;;;;;;10.39;64.63;98664.25;3132822;28;19925;-73
2022/04/03 00:29:54;;;;;;;;;;;;;;;10.41;64.52;98670.16;3132876;28;19925;-74
2022/04/03 00:31:27;;;;;;;;;;;;;;;10.41;64.48;98671.03;3133645;28;20517;-74
2022/04/03 00:32:59;;;;;;;;;;;;;;;10.27;64.42;98649.41;3131863;28;20299;-74
2022/04/03 00:34:30;;;;;;;;;;;;;;;10.44;64.30;98669.97;3136577;28;19925;-73
2022/04/03 00:36:02;;;;;;;;;;;;;;;10.45;64.16;98669.91;3132216;28;20058;-74
2022/04/03 00:37:34;;;;;;;;;;;;;;;10.46;64.26;98671.56;3133474;28;19929;-74
2022/04/03 00:39:05;;;;;;;;;;;;;;;10.49;64.04;98670.53;3133037;28;20021;-74
2022/04/03 00:40:38;;;;;;;;;;;;;;;10.49;64.09;98660.13;3135430;28;19978;-74
2022/04/03 00:42:10;;;;;;;;;;;;;;;10.52;63.89;98653.91;3132863;28;19947;-74
2022/04/03 00:43:41;;;;;;;;;;;;;;;10.53;63.81;98646.00;3133092;28;20449;-73
2022/04/03 00:45:13;;;;;;;;;;;;;;;10.54;63.57;98641.63;3133481;28;19938;-74
2022/04/03 00:46:47;;;;;;;;;;;;;;;10.55;63.51;98638.91;3133072;28;19928;-74
2022/04/03 00:48:17;;;;;;;;;;;;;;;10.57;63.40;98631.03;3133595;28;19929;-74
2022/04/03 00:49:49;;;;;;;;;;;;;;;10.57;63.47;98629.25;3133209;28;20007;-74
2022/04/03 00:51:20;;;;;;;;;;;;;;;10.56;63.34;98630.19;3134405;28;19990;-74
2022/04/03 00:52:51;;;;;;;;;;;;;;;10.56;63.07;98622.38;3132717;28;19986;-74
2022/04/03 00:54:23;;;;;;;;;;;;;;;10.57;62.99;98625.81;3128533;28;20426;-74
2022/04/03 00:55:54;;;;;;;;;;;;;;;10.55;63.29;98617.25;3132690;28;19925;-74
2022/04/03 00:57:26;;;;;;;;;;;;;;;10.52;63.05;98615.69;3135075;28;19936;-74
2022/04/03 00:58:58;;;;;;;;;;;;;;;10.52;63.17;98617.44;3135510;28;19929;-74
2022/04/03 01:00:29;;;;;;;;;;;;;;;10.49;62.86;98613.28;3132060;28;19933;-74
2022/04/03 01:02:03;;;;;;;;;;;;;;;10.47;63.15;98616.00;3136982;28;19932;-74
2022/04/03 01:03:34;;;;;;;;;;;;;;;10.45;63.09;98617.00;3133065;28;20629;-74
2022/04/03 01:05:07;;;;;;;;;;;;;;;10.42;62.96;98618.03;3133990;28;19929;-74
2022/04/03 01:06:39;;;;;;;;;;;;;;;10.41;63.23;98605.09;3132982;28;19932;-74
2022/04/03 01:08:10;;;;;;;;;;;;;;;10.37;63.26;98599.28;3136027;28;19928;-74
2022/04/03 01:09:42;;;;;;;;;;;;;;;10.36;63.25;98601.97;3132787;28;19924;-75
2022/04/03 01:11:14;;;;;;;;;;;;;;;10.32;63.38;98590.09;3135351;28;20309;-75
2022/04/03 01:12:46;;;;;;;;;;;;;;;10.27;63.44;98594.75;3133083;28;20429;-74
2022/04/03 01:14:30;;;;;;;;;;;;;;;10.21;63.73;98588.97;3134288;28;19990;-74
2022/04/03 01:16:02;;;;;;;;;;;;;;;10.17;63.98;98578.84;3132674;28;19925;-74
2022/04/03 01:17:35;;;;;;;;;;;;;;;10.12;64.24;98576.56;3134165;28;20492;-74
2022/04/03 01:19:07;;;;;;;;;;;;;;;10.08;64.37;98585.47;3132508;28;20279;-74
2022/04/03 01:20:39;;;;;;;;;;;;;;;10.05;64.29;98583.06;3132745;28;20386;-74
2022/04/03 01:22:11;;;;;;;;;;;;;;;10.02;64.62;98580.63;3133203;28;19964;-74
2022/04/03 01:23:43;;;;;;;;;;;;;;;9.98;64.72;98579.16;3132442;28;19928;-74
2022/04/03 01:25:16;;;;;;;;;;;;;;;9.93;64.75;98563.84;3133687;28;20336;-74
2022/04/03 01:26:48;;;;;;;;;;;;;;;9.87;65.01;98556.41;3132330;28;19925;-76
2022/04/03 01:28:20;;;;;;;;;;;;;;;9.85;64.81;98558.31;3133415;28;20586;-75
2022/04/03 01:29:52;;;;;;;;;;;;;;;9.82;64.73;98555.03;3132728;28;20006;-75
2022/04/03 01:31:24;;;;;;;;;;;;;;;9.81;64.45;98567.22;3136330;28;20011;-76
2022/04/03 01:32:56;;;;;;;;;;;;;;;9.80;64.33;98570.75;3133105;28;20371;-74
2022/04/03 01:34:27;;;;;;;;;;;;;;;9.79;64.57;98572.50;3131526;28;20035;-73
2022/04/03 01:35:59;;;;;;;;;;;;;;;9.79;64.38;98571.69;3132056;28;19929;-72
2022/04/03 01:37:30;;;;;;;;;;;;;;;9.78;64.67;98562.19;3132412;28;20384;-73
2022/04/03 01:39:02;;;;;;;;;;;;;;;9.77;64.35;98561.38;3136021;28;20305;-73
2022/04/03 01:40:35;;;;;;;;;;;;;;;9.78;64.33;98570.00;3132677;28;20372;-72
2022/04/03 01:42:07;;;;;;;;;;;;;;;9.77;64.44;98563.13;3130848;28;20020;-72
2022/04/03 01:43:39;;;;;;;;;;;;;;;9.77;64.54;98565.72;3132400;28;19924;-73
2022/04/03 01:45:10;;;;;;;;;;;;;;;9.75;64.56;98570.19;3132853;28;19929;-72
2022/04/03 01:46:42;;;;;;;;;;;;;;;9.76;64.48;98579.66;3132003;28;19929;-72
2022/04/03 01:48:13;;;;;;;;;;;;;;;9.75;64.53;98567.59;3134045;28;19924;-72
2022/04/03 01:49:44;;;;;;;;;;;;;;;9.74;64.46;98564.16;3132313;28;19929;-72
2022/04/03 01:51:15;;;;;;;;;;;;;;;9.74;64.41;98558.97;3132919;28;20070;-73
2022/04/03 01:52:47;;;;;;;;;;;;;;;9.74;64.32;98556.34;3132379;28;20500;-73
2022/04/03 01:54:18;;;;;;;;;;;;;;;9.75;64.39;98560.63;3132331;28;19924;-73
2022/04/03 01:55:59;;;;;;;;;;;;;;;9.74;64.45;98561.56;3138067;28;19944;-73
2022/04/03 01:57:31;;;;;;;;;;;;;;;9.74;64.73;98560.72;3136131;28;19925;-74
2022/04/03 01:59:02;;;;;;;;;;;;;;;9.74;64.71;98568.53;3137692;28;19936;-74
2022/04/03 02:00:33;;;;;;;;;;;;;;;9.74;64.65;98564.16;3131866;28;20035;-74
2022/04/03 02:02:05;;;;;;;;;;;;;;;9.74;64.70;98564.16;3132167;28;20085;-73
2022/04/03 02:03:36;;;;;;;;;;;;;;;9.75;64.66;98562.38;3132381;28;19932;-73
2022/04/03 02:05:08;;;;;;;;;;;;;;;9.75;64.79;98560.63;3134854;28;19924;-73
2022/04/03 02:06:40;;;;;;;;;;;;;;;9.76;64.75;98558.84;3133060;28;20354;-73
2022/04/03 02:08:12;;;;;;;;;;;;;;;9.74;64.63;98561.56;3132528;28;19978;-72
2022/04/03 02:09:44;;;;;;;;;;;;;;;9.74;64.54;98558.97;3134739;28;19929;-73
2022/04/03 02:11:17;;;;;;;;;;;;;;;9.73;64.76;98557.28;3132190;28;20360;-71
2022/04/03 02:12:48;;;;;;;;;;;;;;;9.72;64.52;98547.81;3134865;28;19925;-71
2022/04/03 02:14:24;;;;;;;;;;;;;;;9.72;64.48;98549.56;3132075;28;19928;-72
2022/04/03 02:15:56;;;;;;;;;;;;;;;9.68;64.42;98551.53;3130803;28;20332;-73
2022/04/03 02:17:27;;;;;;;;;;;;;;;9.67;64.26;98549.88;3131921;28;19929;-73
2022/04/03 02:18:59;;;;;;;;;;;;;;;9.67;64.41;98556.81;3133359;28;20054;-73
2022/04/03 02:20:31;;;;;;;;;;;;;;;9.65;64.43;98564.72;3132055;28;19932;-74
2022/04/03 02:22:03;;;;;;;;;;;;;;;9.66;64.46;98566.38;3132192;28;19935;-74
2022/04/03 02:23:35;;;;;;;;;;;;;;;9.63;64.45;98556.16;3132272;28;19929;-73
2022/04/03 02:25:09;;;;;;;;;;;;;;;9.64;64.32;98557.84;3131590;28;19951;-73
2022/04/03 02:26:42;;;;;;;;;;;;;;;9.64;64.52;98568.22;3132684;28;19924;-74
2022/04/03 02:28:14;;;;;;;;;;;;;;;9.63;64.36;98570.94;3125614;28;19983;-73
2022/04/03 02:29:46;;;;;;;;;;;;;;;9.61;64.65;98572.78;3137428;28;19924;-74
2022/04/03 02:31:17;;;;;;;;;;;;;;;9.61;64.62;98570.19;3132162;28;19932;-74
2022/04/03 02:32:49;;;;;;;;;;;;;;;9.61;64.54;98567.59;3132079;28;19974;-73
2022/04/03 02:34:20;;;;;;;;;;;;;;;9.44;64.80;98546.06;3131691;28;19986;-74
2022/04/03 02:35:52;;;;;;;;;;;;;;;9.60;64.66;98563.31;3136147;28;20329;-73
2022/04/03 02:37:22;;;;;;;;;;;;;;;9.59;64.73;98570.28;3131947;28;19983;-73
2022/04/03 02:38:54;;;;;;;;;;;;;;;9.58;64.91;98566.00;3134274;28;20546;-73
2022/04/03 02:40:25;;;;;;;;;;;;;;;9.56;64.83;98566.13;3132831;28;19963;-75
2022/04/03 02:41:58;;;;;;;;;;;;;;;9.55;64.98;98574.00;3131447;28;20505;-73
2022/04/03 02:43:28;;;;;;;;;;;;;;;9.54;65.07;98574.94;3134479;28;19994;-73
2022/04/03 02:45:01;;;;;;;;;;;;;;;9.52;65.01;98571.56;3132017;28;20066;-75
2022/04/03 02:46:32;;;;;;;;;;;;;;;9.48;65.16;98577.91;3134306;28;19928;-75
2022/04/03 02:48:04;;;;;;;;;;;;;;;9.46;65.11;98577.97;3131808;28;19929;-73
2022/04/03 02:49:36;;;;;;;;;;;;;;;9.41;65.59;98574.00;3129378;28;19928;-74
2022/04/03 02:51:07;;;;;;;;;;;;;;;9.33;66.08;98580.47;3131438;28;19936;-74
2022/04/03 02:52:39;;;;;;;;;;;;;;;9.21;66.85;98583.81;3131725;28;19925;-74
2022/04/03 02:54:11;;;;;;;;;;;;;;;9.10;67.13;98575.81;3131565;28;19928;-73
2022/04/03 02:55:42;;;;;;;;;;;;;;;9.00;67.67;98587.66;3134944;28;20272;-73
2022/04/03 02:57:16;;;;;;;;;;;;;;;8.95;67.55;98585.31;3131803;28;20330;-74
2022/04/03 02:58:48;;;;;;;;;;;;;;;8.95;67.52;98584.50;3132890;28;20431;-74
2022/04/03 03:00:20;;;;;;;;;;;;;;;8.90;67.65;98582.16;3139802;28;20408;-72
2022/04/03 03:01:51;;;;;;;;;;;;;;;8.86;68.24;98584.09;3134022;28;19929;-72
2022/04/03 03:03:23;;;;;;;;;;;;;;;8.83;68.47;98588.63;3139485;28;19991;-73
2022/04/03 03:04:55;;;;;;;;;;;;;;;8.80;68.24;98588.81;3134204;28;19931;-73
2022/04/03 03:06:26;;;;;;;;;;;;;;;8.83;68.04;98593.81;3138369;28;20308;-73
2022/04/03 03:07:58;;;;;;;;;;;;;;;8.85;67.69;98595.41;3134079;28;19928;-74
2022/04/03 03:09:29;;;;;;;;;;;;;;;8.89;67.63;98588.28;3135923;28;19929;-74
2022/04/03 03:11:01;;;;;;;;;;;;;;;8.93;67.57;98599.31;3134105;28;20318;-72
2022/04/03 03:12:33;;;;;;;;;;;;;;;8.88;68.00;98587.44;3135358;28;20058;-74
2022/04/03 03:14:05;;;;;;;;;;;;;;;8.83;68.41;98594.66;3135462;28;19940;-76
2022/04/03 03:15:37;;;;;;;;;;;;;;;8.85;68.16;98595.41;3134256;28;20000;-75
2022/04/03 03:17:07;;;;;;;;;;;;;;;8.87;68.00;98596.16;3136627;28;20262;-76
2022/04/03 03:18:39;;;;;;;;;;;;;;;8.88;67.79;98603.03;3133985;28;19929;-76
2022/04/03 03:20:10;;;;;;;;;;;;;;;8.92;67.61;98606.28;3135786;28;19929;-76
2022/04/03 03:21:42;;;;;;;;;;;;;;;8.95;67.53;98600.06;3123130;28;20683;-76
2022/04/03 03:23:14;;;;;;;;;;;;;;;8.96;67.63;98593.94;3125554;28;19958;-77
2022/04/03 03:24:44;;;;;;;;;;;;;;;8.99;67.32;98596.38;3124785;28;19944;-76
2022/04/03 03:26:16;;;;;;;;;;;;;;;9.00;67.36;98596.28;3125989;28;19929;-75
2022/04/03 03:27:49;;;;;;;;;;;;;;;9.03;67.44;98595.28;3123373;28;20001;-74
2022/04/03 03:29:24;;;;;;;;;;;;;;;9.04;67.43;98591.75;3120676;28;19929;-75
2022/04/03 03:30:56;;;;;;;;;;;;;;;9.06;67.37;98592.50;3125542;28;19929;-76
2022/04/03 03:32:27;;;;;;;;;;;;;;;9.06;67.51;98593.34;3125395;28;19972;-75
2022/04/03 03:33:59;;;;;;;;;;;;;;;9.08;67.51;98598.44;3127376;28;19928;-74
2022/04/03 03:35:31;;;;;;;;;;;;;;;9.08;67.39;98593.22;3128033;28;19928;-75
2022/04/03 03:37:03;;;;;;;;;;;;;;;9.09;67.42;98597.53;3129666;28;20398;-73
2022/04/03 03:38:35;;;;;;;;;;;;;;;9.10;67.27;98604.38;3122693;28;20457;-75
2022/04/03 03:40:11;;;;;;;;;;;;;;;9.11;67.26;98611.25;3127331;28;19929;-75
2022/04/03 03:41:42;;;;;;;;;;;;;;;9.10;67.34;98614.75;3124464;28;19983;-75
2022/04/03 03:43:16;;;;;;;;;;;;;;;9.07;67.19;98620.97;3127911;28;20121;-75
2022/04/03 03:44:48;;;;;;;;;;;;;;;9.05;66.88;98615.03;3125051;28;19955;-74
2022/04/03 03:46:20;;;;;;;;;;;;;;;9.04;66.69;98633.31;3125135;28;20421;-75
2022/04/03 03:47:51;;;;;;;;;;;;;;;9.01;66.70;98636.06;3125693;28;20002;-75
2022/04/03 03:49:23;;;;;;;;;;;;;;;9.00;66.98;98634.41;3124642;28;19929;-75
2022/04/03 03:50:55;;;;;;;;;;;;;;;8.99;66.85;98643.09;3126257;28;20196;-74
2022/04/03 03:52:27;;;;;;;;;;;;;;;8.97;66.75;98638.00;3126700;28;20401;-75
2022/04/03 03:53:58;;;;;;;;;;;;;;;8.97;66.86;98639.78;3125923;28;19929;-75
2022/04/03 03:55:30;;;;;;;;;;;;;;;8.97;66.95;98650.16;3124799;28;20386;-75
2022/04/03 03:57:02;;;;;;;;;;;;;;;8.97;66.80;98645.81;3125803;28;19944;-76
2022/04/03 03:58:35;;;;;;;;;;;;;;;8.97;66.70;98651.00;3124824;28;19928;-74
2022/04/03 04:00:09;;;;;;;;;;;;;;;8.98;66.88;98646.63;3126898;28;19928;-76
2022/04/03 04:01:40;;;;;;;;;;;;;;;8.96;67.00;98654.53;3124373;28;19929;-74
2022/04/03 04:03:12;;;;;;;;;;;;;;;8.96;66.71;98645.88;3124222;28;19929;-75
2022/04/03 04:04:44;;;;;;;;;;;;;;;8.95;66.61;98646.81;3124793;28;20070;-74
2022/04/03 04:06:16;;;;;;;;;;;;;;;8.92;66.75;98649.59;3124450;28;19936;-73
2022/04/03 04:07:48;;;;;;;;;;;;;;;8.91;66.69;98647.91;3128227;28;19948;-74
2022/04/03 04:09:20;;;;;;;;;;;;;;;8.88;66.63;98647.16;3123668;28;20026;-75
2022/04/03 04:10:52;;;;;;;;;;;;;;;8.88;66.54;98643.75;3127097;28;19978;-75
2022/04/03 04:12:23;;;;;;;;;;;;;;;8.88;66.70;98641.13;3124427;28;19929;-75
2022/04/03 04:13:56;;;;;;;;;;;;;;;8.88;66.69;98643.75;3127911;28;19988;-75
2022/04/03 04:15:28;;;;;;;;;;;;;;;8.86;66.68;98645.56;3123224;28;20060;-75
2022/04/03 04:16:59;;;;;;;;;;;;;;;8.87;66.74;98655.03;3123377;28;19928;-74
2022/04/03 04:18:31;;;;;;;;;;;;;;;8.87;66.85;98655.03;3123511;28;19929;-74
2022/04/03 04:20:03;;;;;;;;;;;;;;;8.89;66.66;98653.19;3124917;28;19936;-73
2022/04/03 04:21:35;;;;;;;;;;;;;;;8.91;66.65;98655.72;3125264;28;20171;-74
2022/04/03 04:23:06;;;;;;;;;;;;;;;8.93;66.64;98653.84;3123966;28;20248;-74
2022/04/03 04:24:38;;;;;;;;;;;;;;;8.96;66.93;98653.66;3125755;28;19932;-73
2022/04/03 04:26:10;;;;;;;;;;;;;;;8.83;66.85;98628.41;3123889;28;19933;-75
2022/04/03 04:27:42;;;;;;;;;;;;;;;8.99;66.82;98656.09;3124645;28;19935;-73
2022/04/03 04:29:15;;;;;;;;;;;;;;;8.99;66.60;98662.16;3123692;28;19997;-73
2022/04/03 04:30:47;;;;;;;;;;;;;;;9.01;66.81;98668.06;3128307;28;19932;-74
2022/04/03 04:32:17;;;;;;;;;;;;;;;9.03;66.65;98666.22;3123379;28;19935;-74
2022/04/03 04:33:49;;;;;;;;;;;;;;;9.05;66.89;98668.72;3125243;28;20022;-74
2022/04/03 04:35:21;;;;;;;;;;;;;;;9.06;66.81;98660.84;3124607;28;19929;-73
2022/04/03 04:36:52;;;;;;;;;;;;;;;9.08;66.60;98659.03;3124259;28;19929;-74
2022/04/03 04:38:24;;;;;;;;;;;;;;;9.10;66.71;98666.72;3124706;28;19933;-74
2022/04/03 04:39:56;;;;;;;;;;;;;;;9.13;66.80;98670.91;3124742;28;19980;-74
2022/04/03 04:41:28;;;;;;;;;;;;;;;9.16;66.69;98673.31;3126091;28;19992;-74
2022/04/03 04:42:59;;;;;;;;;;;;;;;9.18;66.74;98668.88;3123548;28;19933;-74
2022/04/03 04:44:32;;;;;;;;;;;;;;;9.22;66.87;98675.56;3127349;28;20020;-74
2022/04/03 04:46:04;;;;;;;;;;;;;;;9.26;66.72;98674.47;3124104;28;19935;-73
2022/04/03 04:47:37;;;;;;;;;;;;;;;9.31;66.50;98672.44;3127042;28;19993;-73
2022/04/03 04:49:08;;;;;;;;;;;;;;;9.35;66.58;98679.13;3123873;28;19990;-73
2022/04/03 04:50:40;;;;;;;;;;;;;;;9.39;66.50;98682.38;3126038;28;20726;-73
2022/04/03 04:52:11;;;;;;;;;;;;;;;9.43;66.36;98686.47;3124036;28;20015;-73
2022/04/03 04:53:43;;;;;;;;;;;;;;;9.46;66.40;98679.31;3123683;28;20572;-73
2022/04/03 04:55:14;;;;;;;;;;;;;;;9.50;66.18;98683.44;3125330;28;19929;-73
2022/04/03 04:56:45;;;;;;;;;;;;;;;9.54;65.97;98695.31;3124099;28;20425;-74
2022/04/03 04:58:18;;;;;;;;;;;;;;;9.60;65.98;98699.31;3123885;28;19928;-75
2022/04/03 04:59:54;;;;;;;;;;;;;;;9.66;65.62;98700.72;3123706;28;20421;-74
2022/04/03 05:01:25;;;;;;;;;;;;;;;9.70;65.80;98703.06;3129509;28;19929;-75
2022/04/03 05:02:57;;;;;;;;;;;;;;;9.75;65.48;98703.59;3124208;28;19954;-75
2022/04/03 05:04:28;;;;;;;;;;;;;;;9.80;65.44;98700.75;3125373;28;19959;-75
2022/04/03 05:06:00;;;;;;;;;;;;;;;9.84;65.38;98704.00;3123397;28;20019;-75
2022/04/03 05:07:32;;;;;;;;;;;;;;;9.88;64.98;98703.72;3124866;28;19986;-75
2022/04/03 05:09:04;;;;;;;;;;;;;;;9.91;65.00;98700.94;3126775;28;19986;-74
2022/04/03 05:10:36;;;;;;;;;;;;;;;9.95;64.94;98702.44;3124237;28;19987;-73
2022/04/03 05:12:09;;;;;;;;;;;;;;;9.99;64.96;98703.91;3124360;28;19939;-73
2022/04/03 05:13:42;;;;;;;;;;;;;;;10.02;64.98;98708.09;3122589;28;20015;-73
2022/04/03 05:15:15;;;;;;;;;;;;;;;10.07;64.82;98716.47;3126892;28;19928;-72
2022/04/03 05:16:47;;;;;;;;;;;;;;;10.15;64.72;98718.59;3123193;28;20094;-73
2022/04/03 05:18:18;;;;;;;;;;;;;;;10.23;64.66;98719.81;3125563;28;19935;-72
2022/04/03 05:19:50;;;;;;;;;;;;;;;10.34;64.36;98723.53;3122693;28;19988;-73
2022/04/03 05:21:22;;;;;;;;;;;;;;;10.43;64.09;98731.63;3124788;28;19928;-72
2022/04/03 05:22:54;;;;;;;;;;;;;;;10.53;63.82;98731.03;3123239;28;20131;-73
2022/04/03 05:24:26;;;;;;;;;;;;;;;10.62;63.62;98733.94;3123213;28;20027;-75
2022/04/03 05:25:58;;;;;;;;;;;;;;;10.72;63.50;98734.19;3117402;28;19928;-74
2022/04/03 05:27:29;;;;;;;;;;;;;;;10.80;63.48;98737.16;3123242;28;20414;-75
2022/04/03 05:29:01;;;;;;;;;;;;;;;10.85;62.92;98739.44;3123385;28;20160;-73
2022/04/03 05:30:34;;;;;;;;;;;;;;;10.87;62.89;98742.81;3123360;28;20738;-73
2022/04/03 05:32:07;;;;;;;;;;;;;;;10.90;62.88;98750.41;3124236;28;19930;-75
2022/04/03 05:33:38;;;;;;;;;;;;;;;10.90;62.75;98748.66;3123048;28;20658;-74
2022/04/03 05:35:13;;;;;;;;;;;;;;;10.91;62.81;98752.94;3129481;28;19997;-75
2022/04/03 05:36:44;;;;;;;;;;;;;;;10.92;62.51;98757.22;3124094;28;19928;-76
2022/04/03 05:38:16;;;;;;;;;;;;;;;10.98;62.56;98766.41;3126695;28;19935;-69
2022/04/03 05:39:48;;;;;;;;;;;;;;;11.05;62.51;98759.03;3122635;28;19929;-68
2022/04/03 05:41:19;;;;;;;;;;;;;;;11.13;62.21;98757.59;3123920;28;19932;-68
2022/04/03 05:42:51;;;;;;;;;;;;;;;11.21;61.86;98761.47;3122243;28;20008;-68
2022/04/03 05:44:24;;;;;;;;;;;;;;;11.27;61.39;98771.50;3122561;28;19928;-67
2022/04/03 05:45:57;;;;;;;;;;;;;;;11.30;61.25;98774.78;3124731;28;19940;-69
2022/04/03 05:47:32;;;;;;;;;;;;;;;11.34;61.05;98770.19;3124816;28;19929;-67
2022/04/03 05:49:04;;;;;;;;;;;;;;;11.42;61.00;98770.53;3121683;28;20222;-71
2022/04/03 05:50:37;;;;;;;;;;;;;;;11.58;60.52;98771.19;3122236;28;19939;-72
2022/04/03 05:52:09;;;;;;;;;;;;;;;11.96;60.14;98774.84;3125385;28;19935;-71
2022/04/03 05:53:44;;;;;;;;;;;;;;;12.63;59.25;98777.19;3122891;28;19936;-68
2022/04/03 05:55:16;;;;;;;;;;;;;;;13.90;58.15;98775.84;3124636;28;20212;-72
2022/04/03 05:56:48;;;;;;;;;;;;;;;15.58;56.24;98776.69;3123242;28;19935;-69
2022/04/03 05:58:19;;;;;;;;;;;;;;;16.87;53.54;98779.81;3124620;28;20237;-68
2022/04/03 05:59:51;;;;;;;;;;;;;;;18.05;51.06;98778.94;3123006;28;20179;-71
2022/04/03 06:01:25;;;;;;;;;;;;;;;19.27;48.33;98771.75;3123298;28;20395;-69
2022/04/03 06:02:58;;;;;;;;;;;;;;;20.53;46.17;98770.63;3128387;28;20012;-73
2022/04/03 06:04:30;;;;;;;;;;;;;;;21.81;44.07;98772.09;3122399;28;20107;-73
2022/04/03 06:06:02;;;;;;;;;;;;;;;23.18;41.50;98770.22;3121911;28;19929;-73
2022/04/03 06:07:33;;;;;;;;;;;;;;;24.52;38.62;98766.13;3122647;28;19929;-73
2022/04/03 06:09:05;;;;;;;;;;;;;;;25.78;36.46;98777.41;3128395;28;20019;-72
2022/04/03 06:10:37;;;;;;;;;;;;;;;26.90;34.65;98765.84;3122972;28;20234;-73
2022/04/03 06:12:10;;;;;;;;;;;;;;;27.94;32.45;98776.19;3123529;28;19978;-74
2022/04/03 06:13:42;;;;;;;;;;;;;;;28.85;30.45;98769.22;3118426;28;20161;-73
2022/04/03 06:15:15;;;;;;;;;;;;;;;29.63;29.62;98774.41;3125408;28;19961;-73
2022/04/03 06:16:48;;;;;;;;;;;;;;;30.36;28.22;98774.63;3123615;28;19929;-72
2022/04/03 06:18:20;;;;;;;;;;;;;;;31.09;26.74;98774.81;3122279;28;20043;-71
2022/04/03 06:19:51;;;;;;;;;;;;;;;31.72;25.10;98782.44;3122786;28;20388;-74
2022/04/03 06:21:35;;;;;;;;;;;;;;;32.41;24.57;98785.41;3123668;28;20140;-82
2022/04/03 06:23:11;;;;;;;;;;;;;;;33.15;23.54;98777.56;3122586;28;20368;-81
2022/04/03 06:24:59;;;;;;;;;;;;;;;33.95;22.72;98786.50;3122568;28;19928;-82
2022/04/03 06:26:44;;;;;;;;;;;;;;;34.77;21.63;98783.13;3124117;28;19932;-80
2022/04/03 06:28:16;;;;;;;;;;;;;;;35.46;20.48;98787.97;3107864;28;19929;-77
2022/04/03 06:29:48;;;;;;;;;;;;;;;35.90;19.97;98790.53;3119427;28;20009;-77
2022/04/03 06:31:20;;;;;;;;;;;;;;;36.36;19.40;98788.19;3122300;28;19928;-79
2022/04/03 06:32:53;;;;;;;;;;;;;;;36.85;18.66;98779.72;3124355;28;19928;-73
2022/04/03 06:34:25;;;;;;;;;;;;;;;37.32;17.72;98784.22;3124693;28;20405;-74
2022/04/03 06:35:58;;;;;;;;;;;;;;;37.83;17.71;98785.38;3128386;28;19994;-77
2022/04/03 06:37:29;;;;;;;;;;;;;;;38.17;17.45;98781.03;3125121;28;19964;-72
2022/04/03 06:39:01;;;;;;;;;;;;;;;38.42;16.73;98784.81;3125098;28;20232;-71
2022/04/03 06:40:34;;;;;;;;;;;;;;;38.67;16.58;98782.00;3124433;28;19949;-72
2022/04/03 06:42:06;;;;;;;;;;;;;;;39.00;16.27;98778.88;3125370;28;19936;-71
2022/04/03 06:43:38;;;;;;;;;;;;;;;39.36;15.60;98780.31;3126052;28;19989;-68
2022/04/03 06:45:11;;;;;;;;;;;;;;;39.70;14.83;98779.53;3129568;28;20761;-67
2022/04/03 06:46:43;;;;;;;;;;;;;;;39.95;14.83;98783.94;3129325;28;19929;-65
2022/04/03 06:48:16;;;;;;;;;;;;;;;39.88;14.48;98788.94;3121378;28;19929;-70
2022/04/03 06:49:49;;;;;;;;;;;;;;;39.75;14.49;98778.69;3127911;28;19937;-70
2022/04/03 06:51:29;;;;;;;;;;;;;;;39.67;14.59;98776.53;3122196;28;20243;-68
2022/04/03 06:53:01;;;;;;;;;;;;;;;39.74;14.11;98785.25;3124868;28;19928;-69
2022/04/03 06:54:33;;;;;;;;;;;;;;;39.90;13.87;98791.38;3125381;28;20366;-69
2022/04/03 06:56:05;;;;;;;;;;;;;;;39.96;14.32;98782.88;3126720;28;20456;-68
2022/04/03 06:57:37;;;;;;;;;;;;;;;40.10;13.83;98799.34;3124196;28;20028;-68
2022/04/03 06:59:09;;;;;;;;;;;;;;;40.11;13.23;98798.28;3125193;28;19976;-69
2022/04/03 07:00:41;;;;;;;;;;;;;;;40.08;13.58;98798.81;3124749;28;20750;-68
2022/04/03 07:02:13;;;;;;;;;;;;;;;40.14;13.41;98799.59;3124234;28;19932;-69
2022/04/03 07:03:46;;;;;;;;;;;;;;;40.14;13.67;98805.88;3124559;28;20453;-69
2022/04/03 07:05:18;;;;;;;;;;;;;;;40.25;13.63;98807.41;3124497;28;19929;-69
2022/04/03 07:06:50;;;;;;;;;;;;;;;40.47;13.62;98811.56;3129265;28;19929;-69
2022/04/03 07:08:22;;;;;;;;;;;;;;;40.61;13.02;98812.50;3124810;28;19983;-69
2022/04/03 07:09:53;;;;;;;;;;;;;;;40.60;12.82;98810.84;3125678;28;19982;-69
2022/04/03 07:11:25;;;;;;;;;;;;;;;40.48;13.18;98786.69;3124426;28;20043;-69
2022/04/03 07:12:59;;;;;;;;;;;;;;;40.68;12.49;98812.16;3121678;28;19932;-69
2022/04/03 07:14:31;;;;;;;;;;;;;;;40.76;13.09;98808.75;3124754;28;20401;-69
2022/04/03 07:16:02;;;;;;;;;;;;;;;40.92;12.68;98812.94;3125894;28;19944;-68
2022/04/03 07:17:34;;;;;;;;;;;;;;;40.98;12.38;98815.63;3127358;28;19962;-69
2022/04/03 07:19:08;;;;;;;;;;;;;;;41.07;12.11;98825.59;3124155;28;19936;-69
2022/04/03 07:20:39;;;;;;;;;;;;;;;40.98;12.00;98816.41;3123931;28;20497;-69
2022/04/03 07:22:11;;;;;;;;;;;;;;;40.89;12.25;98820.91;3124209;28;19936;-69
2022/04/03 07:23:43;;;;;;;;;;;;;;;40.76;12.54;98825.16;3127619;28;19933;-69
2022/04/03 07:25:15;;;;;;;;;;;;;;;40.75;12.26;98830.91;3125023;28;19935;-69
2022/04/03 07:26:47;;;;;;;;;;;;;;;40.66;12.27;98834.28;3127414;28;20369;-69
2022/04/03 07:28:19;;;;;;;;;;;;;;;40.67;12.62;98835.09;3123990;28;19928;-69
2022/04/03 07:29:50;;;;;;;;;;;;;;;40.68;12.39;98834.81;3134233;28;20370;-69
2022/04/03 07:31:22;;;;;;;;;;;;;;;40.54;12.35;98839.28;3133757;28;19932;-71
2022/04/03 07:32:54;;;;;;;;;;;;;;;40.10;12.35;98834.78;3134605;28;19966;-69
2022/04/03 07:34:27;;;;;;;;;;;;;;;39.83;12.54;98837.22;3133388;28;19983;-69
2022/04/03 07:35:59;;;;;;;;;;;;;;;39.51;12.40;98835.78;3133911;28;19982;-69
2022/04/03 07:37:30;;;;;;;;;;;;;;;38.90;12.98;98839.66;3140120;28;19982;-69
2022/04/03 07:39:02;;;;;;;;;;;;;;;38.30;12.94;98838.66;3131960;28;19928;-69
2022/04/03 07:40:34;;;;;;;;;;;;;;;37.63;13.33;98844.06;3139669;28;19940;-68
2022/04/03 07:42:05;;;;;;;;;;;;;;;37.01;14.08;98836.84;3133892;28;19928;-69
2022/04/03 07:43:37;;;;;;;;;;;;;;;36.45;14.36;98845.44;3135486;28;19975;-69
2022/04/03 07:45:11;;;;;;;;;;;;;;;35.78;15.04;98841.38;3133672;28;20344;-69
2022/04/03 07:46:43;;;;;;;;;;;;;;;35.12;15.28;98840.66;3130766;28;19946;-69
2022/04/03 07:48:15;;;;;;;;;;;;;;;34.32;15.50;98840.09;3134260;28;19931;-69
2022/04/03 07:49:48;;;;;;;;;;;;;;;33.75;15.88;98846.41;3134766;28;19928;-69
2022/04/03 07:51:20;;;;;;;;;;;;;;;33.13;16.15;98841.75;3135980;28;19928;-69
2022/04/03 07:52:52;;;;;;;;;;;;;;;32.54;16.67;98854.47;3133972;28;20396;-69
2022/04/03 07:54:23;;;;;;;;;;;;;;;32.01;16.97;98839.19;3136702;28;20270;-69
2022/04/03 07:55:55;;;;;;;;;;;;;;;31.52;17.33;98835.75;3133601;28;19979;-69
2022/04/03 07:57:27;;;;;;;;;;;;;;;31.22;17.65;98840.03;3136657;28;19978;-69
2022/04/03 07:58:58;;;;;;;;;;;;;;;30.95;17.82;98850.28;3133446;28;19928;-69
2022/04/03 08:00:30;;;;;;;;;;;;;;;30.52;18.23;98851.13;3134670;28;19928;-70
2022/04/03 08:02:02;;;;;;;;;;;;;;;30.01;18.20;98848.66;3133377;28;19925;-69
2022/04/03 08:03:34;;;;;;;;;;;;;;;29.45;18.47;98850.22;3135037;28;19925;-69